createdAt,value
2023-03-16T00:01:06.685Z,22.50
2023-03-16T00:03:36.792Z,18.70
2023-03-16T00:06:06.334Z,22.10
2023-03-16T00:08:37.317Z,25.10
2023-03-16T00:11:06.068Z,23.10
2023-03-16T00:13:34.653Z,22.70
2023-03-16T00:16:07.963Z,22.30
2023-03-16T00:18:39.394Z,23.00
2023-03-16T00:21:08.000Z,19.70
2023-03-16T00:23:37.475Z,24.30
2023-03-16T00:26:09.519Z,26.40
2023-03-16T00:28:39.987Z,27.20
2023-03-16T00:31:12.059Z,27.20
2023-03-16T00:33:45.283Z,25.70
2023-03-16T00:36:14.100Z,32.10
2023-03-16T00:38:49.559Z,24.00
2023-03-16T00:41:18.852Z,26.20
2023-03-16T00:43:49.274Z,23.70
2023-03-16T00:46:18.755Z,29.60
2023-03-16T00:48:48.905Z,23.90
2023-03-16T00:51:19.588Z,25.50
2023-03-16T00:53:49.240Z,22.50
2023-03-16T00:56:20.489Z,27.90
2023-03-16T00:58:49.907Z,27.10
2023-03-16T01:01:20.083Z,25.40
2023-03-16T01:03:50.222Z,33.30
2023-03-16T01:06:20.883Z,26.50
2023-03-16T01:08:49.717Z,29.70
2023-03-16T01:11:20.499Z,26.10
2023-03-16T01:13:49.906Z,27.60
2023-03-16T01:16:19.293Z,27.30
2023-03-16T01:18:52.773Z,27.30
2023-03-16T01:21:22.089Z,26.10
2023-03-16T01:23:54.070Z,33.50
2023-03-16T01:26:25.465Z,26.50
2023-03-16T01:28:55.313Z,29.50
2023-03-16T01:31:24.358Z,26.90
2023-03-16T01:33:53.401Z,25.20
2023-03-16T01:36:25.787Z,23.80
2023-03-16T01:39:01.944Z,27.90
2023-03-16T01:41:39.265Z,27.90
2023-03-16T01:44:12.504Z,26.50
2023-03-16T01:46:42.840Z,25.90
2023-03-16T01:49:27.493Z,23.00
2023-03-16T01:52:09.058Z,26.40
2023-03-16T01:54:50.258Z,24.80
2023-03-16T01:57:22.158Z,27.00
2023-03-16T02:00:10.064Z,25.20
2023-03-16T02:02:49.917Z,21.20
2023-03-16T02:05:43.689Z,25.10
2023-03-16T02:08:16.259Z,24.80
2023-03-16T02:10:45.515Z,21.90
2023-03-16T02:13:14.262Z,24.90
2023-03-16T02:15:43.795Z,22.10
2023-03-16T02:18:12.456Z,20.40
2023-03-16T02:21:05.908Z,26.00
2023-03-16T02:23:34.986Z,22.90
2023-03-16T02:26:11.487Z,22.10
2023-03-16T02:28:54.378Z,25.90
2023-03-16T02:31:27.752Z,21.70
2023-03-16T02:33:56.965Z,24.40
2023-03-16T02:36:25.423Z,20.40
2023-03-16T02:38:54.355Z,20.50
2023-03-16T02:41:23.731Z,19.60
2023-03-16T02:44:25.927Z,17.90
2023-03-16T02:46:57.820Z,16.10
2023-03-16T02:49:30.672Z,18.40
2023-03-16T02:51:59.462Z,19.60
2023-03-16T02:54:28.278Z,18.60
2023-03-16T02:56:57.956Z,20.30
2023-03-16T02:59:27.360Z,20.20
2023-03-16T03:01:58.908Z,27.70
2023-03-16T03:04:28.414Z,23.20
2023-03-16T03:07:04.209Z,23.10
2023-03-16T03:09:35.616Z,26.00
2023-03-16T03:12:05.029Z,19.00
2023-03-16T03:14:38.275Z,17.40
2023-03-16T03:17:07.726Z,19.10
2023-03-16T03:19:36.483Z,23.80
2023-03-16T03:22:10.061Z,20.90
2023-03-16T03:24:39.610Z,22.50
2023-03-16T03:27:08.400Z,25.60
2023-03-16T03:29:39.041Z,26.20
2023-03-16T03:32:08.299Z,30.40
2023-03-16T03:34:38.962Z,25.00
2023-03-16T03:37:07.661Z,25.40
2023-03-16T03:39:39.925Z,38.80
2023-03-16T03:42:09.223Z,31.30
2023-03-16T03:44:38.107Z,43.70
2023-03-16T03:47:08.630Z,44.20
2023-03-16T03:49:37.273Z,44.30
2023-03-16T03:52:06.339Z,57.60
2023-03-16T03:54:36.707Z,117.20
2023-03-16T03:57:10.269Z,180.90
2023-03-16T03:59:44.105Z,138.80
2023-03-16T04:02:16.028Z,120.60
2023-03-16T04:04:51.736Z,105.10
2023-03-16T04:07:20.536Z,79.20
2023-03-16T04:09:49.425Z,40.40
2023-03-16T04:12:39.679Z,27.30
2023-03-16T04:15:10.342Z,27.60
2023-03-16T04:17:55.240Z,23.50
2023-03-16T04:20:24.327Z,24.70
2023-03-16T04:22:58.886Z,24.40
2023-03-16T04:25:31.219Z,34.00
2023-03-16T04:30:33.440Z,31.10
2023-03-16T04:33:22.568Z,107.30
2023-03-16T04:35:52.470Z,182.80
2023-03-16T04:38:25.679Z,178.40
2023-03-16T04:43:34.914Z,67.90
2023-03-16T04:46:08.429Z,86.80
2023-03-16T04:48:37.521Z,106.20
2023-03-16T04:51:07.329Z,77.80
2023-03-16T04:53:38.983Z,67.30
2023-03-16T04:56:18.670Z,71.00
2023-03-16T04:58:49.974Z,91.20
2023-03-16T05:01:22.329Z,73.10
2023-03-16T05:03:53.381Z,50.40
2023-03-16T05:06:22.687Z,76.30
2023-03-16T05:08:52.328Z,66.20
2023-03-16T05:11:20.964Z,121.60
2023-03-16T05:13:55.806Z,83.90
2023-03-16T05:18:59.940Z,68.20
2023-03-16T05:21:32.358Z,61.50
2023-03-16T05:24:08.376Z,66.80
2023-03-16T05:26:37.159Z,75.80
2023-03-16T05:29:05.985Z,79.40
2023-03-16T05:31:35.282Z,60.50
2023-03-16T05:34:06.501Z,41.40
2023-03-16T05:36:38.149Z,34.90
2023-03-16T05:39:11.235Z,32.40
2023-03-16T05:41:44.735Z,34.90
2023-03-16T05:44:33.913Z,31.50
2023-03-16T05:47:25.732Z,28.70
2023-03-16T05:49:57.391Z,35.20
2023-03-16T05:52:39.809Z,32.10
2023-03-16T05:55:15.546Z,27.20
2023-03-16T05:57:45.357Z,33.00
2023-03-16T06:00:16.932Z,32.10
2023-03-16T06:02:50.321Z,43.00
2023-03-16T06:05:19.722Z,32.90
2023-03-16T06:07:49.007Z,37.30
2023-03-16T06:10:18.929Z,70.10
2023-03-16T06:12:47.927Z,49.30
2023-03-16T06:15:16.622Z,37.40
2023-03-16T06:17:48.982Z,29.20
2023-03-16T06:20:18.176Z,28.70
2023-03-16T06:22:47.169Z,32.80
2023-03-16T06:25:39.551Z,47.50
2023-03-16T06:28:11.314Z,218.80
2023-03-16T06:30:42.223Z,73.30
2023-03-16T06:33:11.158Z,36.80
2023-03-16T06:35:40.360Z,37.30
2023-03-16T06:38:27.386Z,50.10
2023-03-16T06:41:09.403Z,45.00
2023-03-16T06:43:39.950Z,41.30
2023-03-16T06:46:09.737Z,39.00
2023-03-16T06:48:39.454Z,30.20
2023-03-16T06:51:08.854Z,27.40
2023-03-16T06:53:38.010Z,30.20
2023-03-16T06:56:07.665Z,42.00
2023-03-16T06:58:39.579Z,32.10
2023-03-16T07:01:10.869Z,33.90
2023-03-16T07:03:42.147Z,40.20
2023-03-16T07:06:24.185Z,35.70
2023-03-16T07:08:54.477Z,37.10
2023-03-16T07:11:24.744Z,38.30
2023-03-16T07:13:53.358Z,43.90
2023-03-16T07:16:25.054Z,48.80
2023-03-16T07:18:57.116Z,56.80
2023-03-16T07:21:26.747Z,41.10
2023-03-16T07:23:56.188Z,38.20
2023-03-16T07:26:27.473Z,40.30
2023-03-16T07:28:59.813Z,36.40
2023-03-16T07:31:28.789Z,37.60
2023-03-16T07:33:59.253Z,33.40
2023-03-16T07:36:35.420Z,29.40
2023-03-16T07:39:06.451Z,30.00
2023-03-16T07:44:18.334Z,35.60
2023-03-16T07:46:53.678Z,36.50
2023-03-16T07:49:25.731Z,40.70
2023-03-16T07:51:55.355Z,33.80
2023-03-16T07:54:28.446Z,31.90
2023-03-16T07:56:56.955Z,33.00
2023-03-16T07:59:38.821Z,38.90
2023-03-16T08:02:16.681Z,34.20
2023-03-16T08:04:46.014Z,33.90
2023-03-16T08:07:16.225Z,43.10
2023-03-16T08:09:52.998Z,34.40
2023-03-16T08:12:35.587Z,32.00
2023-03-16T08:15:06.460Z,83.50
2023-03-16T08:17:35.420Z,78.20
2023-03-16T08:20:27.514Z,35.50
2023-03-16T08:22:56.544Z,31.00
2023-03-16T08:25:28.126Z,30.30
2023-03-16T08:28:04.880Z,27.00
2023-03-16T08:30:34.161Z,25.10
2023-03-16T08:33:28.180Z,27.20
2023-03-16T08:35:57.516Z,25.70
2023-03-16T08:38:27.395Z,30.40
2023-03-16T08:41:00.566Z,64.80
2023-03-16T08:43:30.613Z,37.40
2023-03-16T08:46:05.740Z,37.80
2023-03-16T08:48:44.356Z,32.60
2023-03-16T08:51:14.184Z,25.80
2023-03-16T08:53:54.838Z,35.80
2023-03-16T08:56:24.449Z,40.40
2023-03-16T08:58:53.457Z,34.80
2023-03-16T09:01:27.105Z,32.00
2023-03-16T09:03:56.026Z,29.00
2023-03-16T09:06:24.832Z,29.80
2023-03-16T09:09:05.605Z,29.30
2023-03-16T09:11:45.202Z,24.10
2023-03-16T09:14:14.632Z,22.10
2023-03-16T09:16:45.007Z,25.10
2023-03-16T09:19:18.406Z,23.40
2023-03-16T09:21:49.707Z,25.80
2023-03-16T09:24:18.803Z,24.60
2023-03-16T09:27:00.604Z,21.70
2023-03-16T09:29:33.506Z,29.60
2023-03-16T09:32:04.381Z,26.20
2023-03-16T09:34:33.459Z,27.50
2023-03-16T09:37:03.048Z,29.30
2023-03-16T09:39:33.291Z,28.50
2023-03-16T09:42:22.148Z,26.60
2023-03-16T09:45:24.552Z,25.40
2023-03-16T09:47:59.253Z,29.80
2023-03-16T09:50:47.581Z,28.80
2023-03-16T09:53:29.581Z,34.50
2023-03-16T09:56:20.414Z,31.30
2023-03-16T09:58:49.502Z,27.10
2023-03-16T10:01:40.806Z,25.70
2023-03-16T10:04:26.120Z,23.70
2023-03-16T10:07:13.864Z,24.30
2023-03-16T10:10:15.523Z,29.40
2023-03-16T10:12:48.223Z,26.50
2023-03-16T10:15:27.636Z,28.60
2023-03-16T10:18:07.543Z,27.20
2023-03-16T10:20:42.196Z,44.70
2023-03-16T10:23:18.454Z,32.40
2023-03-16T10:25:49.906Z,41.90
2023-03-16T10:28:21.384Z,43.40
2023-03-16T10:30:53.767Z,41.90
2023-03-16T10:33:27.271Z,44.70
2023-03-16T10:36:16.055Z,46.70
2023-03-16T10:38:47.120Z,50.60
2023-03-16T10:41:18.724Z,46.60
2023-03-16T10:43:53.444Z,50.40
2023-03-16T10:46:22.603Z,87.80
2023-03-16T10:48:53.431Z,47.90
2023-03-16T10:51:25.729Z,40.40
2023-03-16T10:53:54.812Z,52.00
2023-03-16T10:56:30.700Z,45.30
2023-03-16T10:59:01.388Z,47.90
2023-03-16T11:01:34.189Z,42.00
2023-03-16T11:04:02.907Z,40.30
2023-03-16T11:06:32.675Z,37.60
2023-03-16T11:09:08.979Z,36.80
2023-03-16T11:11:37.516Z,38.10
2023-03-16T11:14:13.054Z,39.30
2023-03-16T11:16:44.605Z,33.30
2023-03-16T11:20:05.052Z,32.30
2023-03-16T11:22:52.061Z,36.00
2023-03-16T11:25:43.409Z,38.80
2023-03-16T11:28:32.948Z,36.00
2023-03-16T11:31:20.423Z,37.60
2023-03-16T11:33:49.537Z,50.00
2023-03-16T11:36:44.887Z,55.60
2023-03-16T11:39:21.224Z,42.80
2023-03-16T11:42:21.345Z,45.80
2023-03-16T11:45:11.334Z,38.50
2023-03-16T11:48:01.519Z,37.10
2023-03-16T11:50:52.970Z,37.80
2023-03-16T11:53:25.116Z,46.40
2023-03-16T11:56:30.873Z,44.80
2023-03-16T11:59:05.254Z,45.10
2023-03-16T12:02:06.220Z,42.40
2023-03-16T12:05:17.084Z,62.20
2023-03-16T12:08:34.316Z,38.10
2023-03-16T12:11:08.080Z,37.80
2023-03-16T12:13:56.901Z,35.10
2023-03-16T12:16:49.831Z,32.60
2023-03-16T12:19:35.414Z,22.80
2023-03-16T12:22:32.576Z,23.20
2023-03-16T12:25:01.754Z,21.80
2023-03-16T12:27:38.716Z,21.60
2023-03-16T12:30:30.509Z,25.10
2023-03-16T12:33:38.346Z,22.90
2023-03-16T12:36:26.136Z,22.70
2023-03-16T12:39:32.089Z,20.20
2023-03-16T12:42:15.354Z,25.30
2023-03-16T12:44:44.696Z,23.20
2023-03-16T12:47:38.785Z,21.10
2023-03-16T12:50:08.984Z,19.20
2023-03-16T12:52:45.800Z,21.90
2023-03-16T12:55:16.793Z,22.60
2023-03-16T12:57:48.553Z,24.90
2023-03-16T13:00:17.744Z,22.70
2023-03-16T13:02:57.400Z,21.20
2023-03-16T13:05:34.988Z,24.10
2023-03-16T13:08:10.838Z,22.00
2023-03-16T13:11:01.179Z,24.50
2023-03-16T13:13:30.248Z,20.40
2023-03-16T13:16:12.503Z,18.90
2023-03-16T13:18:45.062Z,20.10
2023-03-16T13:21:40.434Z,20.00
2023-03-16T13:24:23.615Z,17.00
2023-03-16T13:26:53.782Z,22.50
2023-03-16T13:29:30.253Z,24.10
2023-03-16T13:32:03.600Z,21.70
2023-03-16T13:34:35.681Z,18.80
2023-03-16T13:37:04.613Z,22.30
2023-03-16T13:39:34.201Z,20.00
2023-03-16T13:42:09.966Z,22.10
2023-03-16T13:44:39.729Z,19.20
2023-03-16T13:47:08.710Z,20.90
2023-03-16T13:49:51.546Z,22.70
2023-03-16T13:52:26.464Z,22.30
2023-03-16T13:55:02.450Z,25.80
2023-03-16T13:57:35.716Z,22.80
2023-03-16T14:00:15.937Z,24.40
2023-03-16T14:02:45.373Z,23.70
2023-03-16T14:05:26.430Z,21.00
2023-03-16T14:07:55.992Z,21.20
2023-03-16T14:10:26.151Z,22.90
2023-03-16T14:13:26.139Z,24.90
2023-03-16T14:16:06.796Z,26.30
2023-03-16T14:18:56.215Z,31.60
2023-03-16T14:21:29.439Z,30.10
2023-03-16T14:24:00.320Z,25.20
2023-03-16T14:26:39.971Z,32.20
2023-03-16T14:29:25.121Z,22.70
2023-03-16T14:31:54.734Z,32.90
2023-03-16T14:34:36.831Z,39.20
2023-03-16T14:37:09.606Z,24.00
2023-03-16T14:39:41.688Z,21.90
2023-03-16T14:42:42.315Z,19.10
2023-03-16T14:45:13.678Z,20.50
2023-03-16T14:47:45.166Z,22.50
2023-03-16T14:52:50.872Z,19.50
2023-03-16T14:55:20.369Z,20.40
2023-03-16T14:57:51.941Z,21.90
2023-03-16T15:00:22.306Z,18.60
2023-03-16T15:03:06.603Z,17.70
2023-03-16T15:05:37.894Z,19.30
2023-03-16T15:08:11.105Z,18.50
2023-03-16T15:10:45.294Z,17.40
2023-03-16T15:13:39.976Z,20.50
2023-03-16T15:16:12.942Z,19.70
2023-03-16T15:18:42.881Z,17.30
2023-03-16T15:21:16.993Z,20.10
2023-03-16T15:23:45.636Z,19.50
2023-03-16T15:26:16.310Z,19.50
2023-03-16T15:28:45.466Z,19.80
2023-03-16T15:31:17.409Z,20.50
2023-03-16T15:33:46.667Z,19.90
2023-03-16T15:36:17.108Z,17.80
2023-03-16T15:38:50.506Z,16.80
2023-03-16T15:43:47.980Z,51.20
2023-03-16T15:46:16.958Z,25.80
2023-03-16T15:48:45.712Z,46.70
2023-03-16T15:51:22.104Z,46.80
2023-03-16T15:53:53.765Z,24.40
2023-03-16T15:56:30.103Z,24.80
2023-03-16T15:59:13.812Z,26.00
2023-03-16T16:01:46.431Z,27.10
2023-03-16T16:04:20.156Z,28.20
2023-03-16T16:06:49.678Z,51.80
2023-03-16T16:09:18.411Z,71.80
2023-03-16T16:11:48.748Z,30.60
2023-03-16T16:14:23.238Z,29.20
2023-03-16T16:16:51.924Z,24.00
2023-03-16T16:19:21.785Z,23.30
2023-03-16T16:21:55.267Z,25.40
2023-03-16T16:24:25.512Z,23.60
2023-03-16T16:26:55.808Z,22.50
2023-03-16T16:29:28.331Z,23.40
2023-03-16T16:31:57.122Z,26.40
2023-03-16T16:34:27.445Z,24.60
2023-03-16T16:36:57.625Z,24.10
2023-03-16T16:39:27.651Z,21.90
2023-03-16T16:41:58.392Z,25.10
2023-03-16T16:44:28.160Z,23.30
2023-03-16T16:47:00.047Z,25.10
2023-03-16T16:49:30.893Z,22.20
2023-03-16T16:51:59.757Z,26.40
2023-03-16T16:54:31.472Z,22.90
2023-03-16T16:57:00.867Z,22.40
2023-03-16T16:59:31.658Z,24.90
2023-03-16T17:02:01.519Z,23.70
2023-03-16T17:04:32.576Z,24.80
2023-03-16T17:07:03.773Z,22.70
2023-03-16T17:09:35.482Z,21.10
2023-03-16T17:12:04.499Z,20.90
2023-03-16T17:14:33.239Z,23.10
2023-03-16T17:17:07.063Z,19.80
2023-03-16T17:19:36.687Z,21.40
2023-03-16T17:22:18.814Z,21.60
2023-03-16T17:24:49.864Z,21.00
2023-03-16T17:27:28.054Z,21.60
2023-03-16T17:29:57.269Z,18.70
2023-03-16T17:32:25.909Z,21.00
2023-03-16T17:34:54.585Z,16.00
2023-03-16T17:37:23.532Z,18.20
2023-03-16T17:39:52.615Z,18.10
2023-03-16T17:42:23.231Z,15.50
2023-03-16T17:44:52.644Z,16.70
2023-03-16T17:47:25.698Z,18.20
2023-03-16T17:49:55.289Z,19.40
2023-03-16T17:52:26.013Z,17.20
2023-03-16T17:54:56.275Z,15.60
2023-03-16T17:57:30.576Z,15.40
2023-03-16T18:02:41.334Z,12.90
2023-03-16T18:05:30.855Z,11.60
2023-03-16T18:08:22.097Z,14.50
2023-03-16T18:10:53.142Z,16.10
2023-03-16T18:13:27.881Z,15.90
2023-03-16T18:16:00.126Z,17.00
2023-03-16T18:18:30.610Z,14.60
2023-03-16T18:21:02.120Z,13.40
2023-03-16T18:23:35.085Z,16.20
2023-03-16T18:26:03.969Z,16.60
2023-03-16T18:28:33.868Z,12.40
2023-03-16T18:31:02.576Z,15.70
2023-03-16T18:33:39.626Z,15.50
2023-03-16T18:36:15.960Z,16.90
2023-03-16T18:38:47.593Z,17.80
2023-03-16T18:41:20.125Z,17.40
2023-03-16T18:43:49.672Z,15.10
2023-03-16T18:46:39.319Z,12.50
2023-03-16T18:49:23.733Z,11.40
2023-03-16T18:51:54.270Z,15.00
2023-03-16T18:54:28.561Z,12.90
2023-03-16T18:57:00.172Z,12.10
2023-03-16T18:59:29.629Z,15.00
2023-03-16T19:02:01.133Z,10.20
2023-03-16T19:04:31.280Z,16.00
2023-03-16T19:07:00.093Z,13.40
2023-03-16T19:09:29.974Z,17.30
2023-03-16T19:11:59.975Z,19.00
2023-03-16T19:14:31.828Z,17.40
2023-03-16T19:17:05.252Z,18.30
2023-03-16T19:19:34.956Z,20.00
2023-03-16T19:22:12.847Z,17.70
2023-03-16T19:24:47.178Z,19.70
2023-03-16T19:27:26.093Z,17.10
2023-03-16T19:29:58.450Z,18.00
2023-03-16T19:32:27.619Z,20.50
2023-03-16T19:34:56.768Z,19.60
2023-03-16T19:37:26.876Z,22.40
2023-03-16T19:39:55.465Z,18.80
2023-03-16T19:42:33.924Z,21.60
2023-03-16T19:45:02.401Z,21.90
2023-03-16T19:47:36.905Z,19.50
2023-03-16T19:50:13.319Z,17.40
2023-03-16T19:52:42.075Z,18.00
2023-03-16T19:55:15.657Z,18.70
2023-03-16T19:57:44.967Z,16.80
2023-03-16T20:00:25.502Z,15.90
2023-03-16T20:02:59.027Z,15.50
2023-03-16T20:05:29.873Z,17.00
2023-03-16T20:07:59.378Z,16.90
2023-03-16T20:10:29.312Z,16.80
2023-03-16T20:13:02.340Z,21.80
2023-03-16T20:15:33.437Z,17.20
2023-03-16T20:18:02.524Z,18.50
2023-03-16T20:20:36.070Z,20.30
2023-03-16T20:23:14.796Z,18.30
2023-03-16T20:25:43.226Z,18.80
2023-03-16T20:28:24.819Z,18.00
2023-03-16T20:30:54.020Z,19.90
2023-03-16T20:33:37.765Z,18.80
2023-03-16T20:36:07.158Z,19.30
2023-03-16T20:38:39.778Z,17.50
2023-03-16T20:41:27.015Z,20.60
2023-03-16T20:43:55.990Z,18.40
2023-03-16T20:46:29.083Z,17.80
2023-03-16T20:48:59.189Z,17.50
2023-03-16T20:51:29.120Z,21.20
2023-03-16T20:53:57.894Z,20.80
2023-03-16T20:56:26.919Z,21.10
2023-03-16T20:58:57.215Z,21.90
2023-03-16T21:01:26.632Z,22.30
2023-03-16T21:03:57.570Z,22.60
2023-03-16T21:06:28.732Z,20.60
2023-03-16T21:08:58.570Z,21.50
2023-03-16T21:11:34.538Z,21.70
2023-03-16T21:14:03.960Z,22.30
2023-03-16T21:16:32.358Z,24.60
2023-03-16T21:19:01.650Z,20.50
2023-03-16T21:21:30.597Z,21.80
2023-03-16T21:24:04.524Z,23.00
2023-03-16T21:26:34.202Z,21.10
2023-03-16T21:29:06.875Z,21.10
2023-03-16T21:31:37.464Z,23.40
2023-03-16T21:34:06.145Z,22.30
2023-03-16T21:36:34.588Z,23.70
2023-03-16T21:39:06.636Z,24.50
2023-03-16T21:41:35.805Z,22.20
2023-03-16T21:44:07.791Z,19.70
2023-03-16T21:46:37.528Z,21.00
2023-03-16T21:49:06.898Z,19.50
2023-03-16T21:51:36.775Z,24.10
2023-03-16T21:54:07.951Z,26.60
2023-03-16T21:56:41.053Z,21.30
2023-03-16T21:59:10.964Z,22.50
2023-03-16T22:01:54.631Z,22.20
2023-03-16T22:04:29.930Z,19.50
2023-03-16T22:06:58.425Z,22.20
2023-03-16T22:09:30.579Z,21.90
2023-03-16T22:11:59.456Z,24.60
2023-03-16T22:14:31.762Z,24.60
2023-03-16T22:17:02.971Z,22.80
2023-03-16T22:19:31.562Z,21.60
2023-03-16T22:22:03.768Z,21.10
2023-03-16T22:24:37.366Z,22.80
2023-03-16T22:27:13.556Z,22.30
2023-03-16T22:29:44.857Z,20.70
2023-03-16T22:32:18.253Z,21.70
2023-03-16T22:34:56.447Z,18.30
2023-03-16T22:37:28.161Z,20.40
2023-03-16T22:39:58.774Z,19.20
2023-03-16T22:42:32.224Z,20.20
2023-03-16T22:45:01.236Z,20.90
2023-03-16T22:47:33.676Z,20.10
2023-03-16T22:50:03.914Z,20.60
2023-03-16T22:52:34.195Z,19.60
2023-03-16T22:55:03.334Z,19.20
2023-03-16T22:57:31.799Z,18.00
2023-03-16T23:00:07.447Z,16.80
2023-03-16T23:02:36.726Z,17.20
2023-03-16T23:05:22.785Z,15.90
2023-03-16T23:07:52.273Z,18.20
2023-03-16T23:10:23.254Z,16.90
2023-03-16T23:13:00.641Z,16.00
2023-03-16T23:15:30.906Z,15.60
2023-03-16T23:17:59.658Z,14.20
2023-03-16T23:20:32.171Z,15.70
2023-03-16T23:23:01.457Z,15.80
2023-03-16T23:25:30.408Z,15.80
2023-03-16T23:27:59.133Z,12.00
2023-03-16T23:30:27.630Z,13.70
2023-03-16T23:32:58.078Z,13.40
2023-03-16T23:35:29.197Z,14.60
2023-03-16T23:38:01.386Z,14.90
2023-03-16T23:40:30.678Z,17.80
2023-03-16T23:42:59.938Z,15.00
2023-03-16T23:45:31.936Z,16.40
2023-03-16T23:48:02.984Z,19.10
2023-03-16T23:53:03.340Z,16.60
2023-03-16T23:55:34.824Z,14.30
2023-03-16T23:58:03.626Z,14.60
